sensor_id;sensor_type;location;lat;lon;timestamp;P1;durP1;ratioP1;P2;durP2;ratioP2
52946;SDS011;45776;40.400;17.260;2022-07-09T00:43:45;16.27;;;9.43;;
52946;SDS011;45776;40.400;17.260;2022-07-09T00:46:12;14.40;;;9.63;;
52946;SDS011;45776;40.400;17.260;2022-07-09T00:48:38;17.17;;;9.60;;
52946;SDS011;45776;40.400;17.260;2022-07-09T00:51:03;14.80;;;8.80;;
52946;SDS011;45776;40.400;17.260;2022-07-09T00:53:29;15.55;;;9.25;;
52946;SDS011;45776;40.400;17.260;2022-07-09T00:55:55;16.23;;;8.95;;
52946;SDS011;45776;40.400;17.260;2022-07-09T00:58:21;16.30;;;8.93;;
52946;SDS011;45776;40.400;17.260;2022-07-09T01:00:47;17.00;;;8.85;;
52946;SDS011;45776;40.400;17.260;2022-07-09T01:03:12;17.40;;;8.75;;
52946;SDS011;45776;40.400;17.260;2022-07-09T01:05:38;16.60;;;8.27;;
52946;SDS011;45776;40.400;17.260;2022-07-09T01:08:04;15.88;;;8.10;;
52946;SDS011;45776;40.400;17.260;2022-07-09T01:10:31;13.15;;;8.05;;
52946;SDS011;45776;40.400;17.260;2022-07-09T01:12:58;12.48;;;8.38;;
52946;SDS011;45776;40.400;17.260;2022-07-09T01:15:24;11.05;;;7.60;;
52946;SDS011;45776;40.400;17.260;2022-07-09T01:17:50;12.50;;;8.07;;
52946;SDS011;45776;40.400;17.260;2022-07-09T01:20:23;10.00;;;6.82;;
52946;SDS011;45776;40.400;17.260;2022-07-09T01:22:52;8.55;;;6.63;;
52946;SDS011;45776;40.400;17.260;2022-07-09T01:25:18;9.77;;;6.28;;
52946;SDS011;45776;40.400;17.260;2022-07-09T01:27:45;11.18;;;5.35;;
52946;SDS011;45776;40.400;17.260;2022-07-09T01:30:14;8.23;;;4.68;;
52946;SDS011;45776;40.400;17.260;2022-07-09T01:32:49;7.28;;;4.55;;
52946;SDS011;45776;40.400;17.260;2022-07-09T01:35:14;5.28;;;4.00;;
52946;SDS011;45776;40.400;17.260;2022-07-09T01:37:40;6.50;;;4.40;;
52946;SDS011;45776;40.400;17.260;2022-07-09T01:40:05;8.68;;;4.43;;
52946;SDS011;45776;40.400;17.260;2022-07-09T01:42:31;6.25;;;4.53;;
52946;SDS011;45776;40.400;17.260;2022-07-09T01:44:57;8.52;;;4.55;;
52946;SDS011;45776;40.400;17.260;2022-07-09T01:47:22;7.38;;;4.80;;
52946;SDS011;45776;40.400;17.260;2022-07-09T01:49:48;6.72;;;4.75;;
52946;SDS011;45776;40.400;17.260;2022-07-09T01:52:13;5.65;;;4.10;;
52946;SDS011;45776;40.400;17.260;2022-07-09T01:54:39;6.70;;;4.43;;
52946;SDS011;45776;40.400;17.260;2022-07-09T01:57:05;7.00;;;4.50;;
52946;SDS011;45776;40.400;17.260;2022-07-09T01:59:30;7.97;;;4.13;;
52946;SDS011;45776;40.400;17.260;2022-07-09T02:01:56;9.20;;;4.72;;
52946;SDS011;45776;40.400;17.260;2022-07-09T02:04:21;10.63;;;4.40;;
52946;SDS011;45776;40.400;17.260;2022-07-09T02:06:47;7.10;;;4.40;;
52946;SDS011;45776;40.400;17.260;2022-07-09T02:09:12;6.28;;;4.07;;
52946;SDS011;45776;40.400;17.260;2022-07-09T02:11:38;6.05;;;3.83;;
52946;SDS011;45776;40.400;17.260;2022-07-09T02:14:03;6.50;;;4.18;;
52946;SDS011;45776;40.400;17.260;2022-07-09T02:16:29;8.52;;;4.38;;
52946;SDS011;45776;40.400;17.260;2022-07-09T02:18:55;9.10;;;6.07;;
52946;SDS011;45776;40.400;17.260;2022-07-09T02:21:20;9.10;;;6.28;;
52946;SDS011;45776;40.400;17.260;2022-07-09T02:23:46;8.70;;;6.10;;
52946;SDS011;45776;40.400;17.260;2022-07-09T02:26:12;9.73;;;6.60;;
52946;SDS011;45776;40.400;17.260;2022-07-09T02:28:37;10.82;;;7.03;;
52946;SDS011;45776;40.400;17.260;2022-07-09T02:31:03;11.57;;;7.47;;
52946;SDS011;45776;40.400;17.260;2022-07-09T02:33:28;12.88;;;7.38;;
52946;SDS011;45776;40.400;17.260;2022-07-09T02:35:56;12.25;;;7.55;;
52946;SDS011;45776;40.400;17.260;2022-07-09T02:38:21;17.60;;;8.82;;
52946;SDS011;45776;40.400;17.260;2022-07-09T02:40:47;12.55;;;8.15;;
52946;SDS011;45776;40.400;17.260;2022-07-09T02:43:13;14.52;;;7.45;;
52946;SDS011;45776;40.400;17.260;2022-07-09T02:45:38;13.65;;;8.02;;
52946;SDS011;45776;40.400;17.260;2022-07-09T02:48:04;12.23;;;7.60;;
52946;SDS011;45776;40.400;17.260;2022-07-09T02:50:30;12.13;;;7.82;;
52946;SDS011;45776;40.400;17.260;2022-07-09T02:52:55;12.18;;;8.98;;
52946;SDS011;45776;40.400;17.260;2022-07-09T02:55:21;12.95;;;8.10;;
52946;SDS011;45776;40.400;17.260;2022-07-09T02:57:46;11.27;;;7.70;;
52946;SDS011;45776;40.400;17.260;2022-07-09T03:00:12;11.10;;;7.50;;
52946;SDS011;45776;40.400;17.260;2022-07-09T03:02:37;13.00;;;7.25;;
52946;SDS011;45776;40.400;17.260;2022-07-09T03:05:03;10.98;;;7.45;;
52946;SDS011;45776;40.400;17.260;2022-07-09T03:07:29;14.48;;;8.00;;
52946;SDS011;45776;40.400;17.260;2022-07-09T03:09:54;10.55;;;7.68;;
52946;SDS011;45776;40.400;17.260;2022-07-09T03:12:20;11.93;;;7.05;;
52946;SDS011;45776;40.400;17.260;2022-07-09T03:14:45;12.98;;;7.75;;
52946;SDS011;45776;40.400;17.260;2022-07-09T03:17:10;13.15;;;7.10;;
52946;SDS011;45776;40.400;17.260;2022-07-09T03:19:36;12.38;;;6.50;;
52946;SDS011;45776;40.400;17.260;2022-07-09T03:22:02;8.85;;;6.10;;
52946;SDS011;45776;40.400;17.260;2022-07-09T03:24:27;11.60;;;6.47;;
52946;SDS011;45776;40.400;17.260;2022-07-09T03:26:53;10.20;;;6.65;;
52946;SDS011;45776;40.400;17.260;2022-07-09T03:29:18;9.98;;;6.90;;
52946;SDS011;45776;40.400;17.260;2022-07-09T03:31:44;9.82;;;6.38;;
52946;SDS011;45776;40.400;17.260;2022-07-09T03:34:09;12.18;;;6.18;;
52946;SDS011;45776;40.400;17.260;2022-07-09T03:36:35;10.63;;;5.07;;
52946;SDS011;45776;40.400;17.260;2022-07-09T03:39:01;12.27;;;5.82;;
52946;SDS011;45776;40.400;17.260;2022-07-09T03:41:26;13.30;;;5.32;;
52946;SDS011;45776;40.400;17.260;2022-07-09T03:43:52;8.02;;;5.13;;
52946;SDS011;45776;40.400;17.260;2022-07-09T03:46:17;9.43;;;5.20;;
52946;SDS011;45776;40.400;17.260;2022-07-09T03:48:43;10.55;;;4.97;;
52946;SDS011;45776;40.400;17.260;2022-07-09T03:51:09;8.75;;;4.93;;
52946;SDS011;45776;40.400;17.260;2022-07-09T03:53:34;7.55;;;5.38;;
52946;SDS011;45776;40.400;17.260;2022-07-09T03:56:01;8.02;;;4.97;;
52946;SDS011;45776;40.400;17.260;2022-07-09T03:58:26;11.38;;;5.22;;
52946;SDS011;45776;40.400;17.260;2022-07-09T04:00:52;8.15;;;5.00;;
52946;SDS011;45776;40.400;17.260;2022-07-09T04:03:18;8.70;;;4.35;;
52946;SDS011;45776;40.400;17.260;2022-07-09T04:05:44;8.02;;;5.15;;
52946;SDS011;45776;40.400;17.260;2022-07-09T04:08:10;8.15;;;4.10;;
52946;SDS011;45776;40.400;17.260;2022-07-09T04:10:36;9.23;;;4.70;;
52946;SDS011;45776;40.400;17.260;2022-07-09T04:13:01;8.85;;;5.22;;
52946;SDS011;45776;40.400;17.260;2022-07-09T04:15:27;11.20;;;5.50;;
52946;SDS011;45776;40.400;17.260;2022-07-09T04:17:53;7.90;;;4.25;;
52946;SDS011;45776;40.400;17.260;2022-07-09T04:20:18;11.70;;;4.38;;
52946;SDS011;45776;40.400;17.260;2022-07-09T04:22:44;11.35;;;5.65;;
52946;SDS011;45776;40.400;17.260;2022-07-09T04:25:09;8.52;;;4.70;;
52946;SDS011;45776;40.400;17.260;2022-07-09T04:27:35;6.15;;;4.47;;
52946;SDS011;45776;40.400;17.260;2022-07-09T04:30:04;6.25;;;4.40;;
52946;SDS011;45776;40.400;17.260;2022-07-09T04:32:31;7.40;;;4.30;;
52946;SDS011;45776;40.400;17.260;2022-07-09T04:34:56;9.02;;;4.57;;
52946;SDS011;45776;40.400;17.260;2022-07-09T04:37:22;6.30;;;4.63;;
52946;SDS011;45776;40.400;17.260;2022-07-09T04:39:47;6.32;;;4.50;;
52946;SDS011;45776;40.400;17.260;2022-07-09T04:42:13;8.35;;;4.85;;
52946;SDS011;45776;40.400;17.260;2022-07-09T04:44:39;9.25;;;4.80;;
52946;SDS011;45776;40.400;17.260;2022-07-09T04:47:07;8.93;;;5.10;;
52946;SDS011;45776;40.400;17.260;2022-07-09T04:49:32;8.32;;;5.03;;
52946;SDS011;45776;40.400;17.260;2022-07-09T04:51:58;10.13;;;5.32;;
52946;SDS011;45776;40.400;17.260;2022-07-09T04:54:23;8.27;;;4.63;;
52946;SDS011;45776;40.400;17.260;2022-07-09T04:56:49;12.80;;;5.30;;
52946;SDS011;45776;40.400;17.260;2022-07-09T04:59:14;7.10;;;4.95;;
52946;SDS011;45776;40.400;17.260;2022-07-09T05:01:40;6.60;;;4.85;;
52946;SDS011;45776;40.400;17.260;2022-07-09T05:04:05;7.35;;;5.18;;
52946;SDS011;45776;40.400;17.260;2022-07-09T05:06:31;7.60;;;4.85;;
52946;SDS011;45776;40.400;17.260;2022-07-09T05:08:56;8.50;;;4.70;;
52946;SDS011;45776;40.400;17.260;2022-07-09T05:11:21;6.28;;;4.43;;
52946;SDS011;45776;40.400;17.260;2022-07-09T05:13:47;14.07;;;4.30;;
52946;SDS011;45776;40.400;17.260;2022-07-09T05:16:13;8.75;;;4.38;;
52946;SDS011;45776;40.400;17.260;2022-07-09T05:18:39;11.50;;;4.88;;
52946;SDS011;45776;40.400;17.260;2022-07-09T05:21:05;8.55;;;4.53;;
52946;SDS011;45776;40.400;17.260;2022-07-09T05:23:30;8.80;;;4.78;;
52946;SDS011;45776;40.400;17.260;2022-07-09T05:25:56;8.82;;;5.13;;
52946;SDS011;45776;40.400;17.260;2022-07-09T05:28:21;6.93;;;4.53;;
52946;SDS011;45776;40.400;17.260;2022-07-09T05:30:47;10.75;;;4.97;;
52946;SDS011;45776;40.400;17.260;2022-07-09T05:33:12;11.50;;;4.90;;
52946;SDS011;45776;40.400;17.260;2022-07-09T05:35:38;11.82;;;4.50;;
52946;SDS011;45776;40.400;17.260;2022-07-09T05:38:03;10.27;;;5.30;;
52946;SDS011;45776;40.400;17.260;2022-07-09T05:40:29;9.52;;;4.47;;
52946;SDS011;45776;40.400;17.260;2022-07-09T05:42:55;9.60;;;4.97;;
52946;SDS011;45776;40.400;17.260;2022-07-09T05:45:20;7.72;;;5.28;;
52946;SDS011;45776;40.400;17.260;2022-07-09T05:47:46;11.63;;;5.03;;
52946;SDS011;45776;40.400;17.260;2022-07-09T05:50:11;6.43;;;4.60;;
52946;SDS011;45776;40.400;17.260;2022-07-09T05:52:36;8.38;;;4.65;;
52946;SDS011;45776;40.400;17.260;2022-07-09T05:55:02;9.20;;;5.55;;
52946;SDS011;45776;40.400;17.260;2022-07-09T05:57:28;8.73;;;5.00;;
52946;SDS011;45776;40.400;17.260;2022-07-09T05:59:54;8.82;;;4.95;;
52946;SDS011;45776;40.400;17.260;2022-07-09T06:02:20;12.82;;;6.03;;
52946;SDS011;45776;40.400;17.260;2022-07-09T06:04:47;8.60;;;4.60;;
52946;SDS011;45776;40.400;17.260;2022-07-09T06:07:12;9.48;;;5.07;;
52946;SDS011;45776;40.400;17.260;2022-07-09T06:09:38;9.60;;;5.68;;
52946;SDS011;45776;40.400;17.260;2022-07-09T06:12:03;7.75;;;5.28;;
52946;SDS011;45776;40.400;17.260;2022-07-09T06:14:29;10.25;;;5.22;;
52946;SDS011;45776;40.400;17.260;2022-07-09T06:16:55;10.65;;;5.82;;
52946;SDS011;45776;40.400;17.260;2022-07-09T06:19:21;13.63;;;5.13;;
52946;SDS011;45776;40.400;17.260;2022-07-09T06:21:46;8.73;;;5.85;;
52946;SDS011;45776;40.400;17.260;2022-07-09T06:24:12;9.52;;;5.82;;
52946;SDS011;45776;40.400;17.260;2022-07-09T06:26:38;9.32;;;5.63;;
52946;SDS011;45776;40.400;17.260;2022-07-09T06:29:03;13.73;;;5.38;;
52946;SDS011;45776;40.400;17.260;2022-07-09T06:31:28;9.05;;;6.05;;
52946;SDS011;45776;40.400;17.260;2022-07-09T06:33:54;8.60;;;5.75;;
52946;SDS011;45776;40.400;17.260;2022-07-09T06:36:19;6.95;;;5.82;;
52946;SDS011;45776;40.400;17.260;2022-07-09T06:38:45;8.27;;;5.32;;
52946;SDS011;45776;40.400;17.260;2022-07-09T06:41:29;10.30;;;5.55;;
52946;SDS011;45776;40.400;17.260;2022-07-09T06:43:57;11.63;;;5.70;;
52946;SDS011;45776;40.400;17.260;2022-07-09T06:46:22;10.85;;;5.70;;
52946;SDS011;45776;40.400;17.260;2022-07-09T06:48:47;11.15;;;5.72;;
52946;SDS011;45776;40.400;17.260;2022-07-09T06:51:13;8.23;;;5.55;;
52946;SDS011;45776;40.400;17.260;2022-07-09T06:53:38;12.13;;;5.65;;
52946;SDS011;45776;40.400;17.260;2022-07-09T06:56:04;7.63;;;5.75;;
52946;SDS011;45776;40.400;17.260;2022-07-09T06:58:30;14.10;;;5.70;;
52946;SDS011;45776;40.400;17.260;2022-07-09T07:00:55;8.93;;;5.38;;
52946;SDS011;45776;40.400;17.260;2022-07-09T07:03:21;10.45;;;5.68;;
52946;SDS011;45776;40.400;17.260;2022-07-09T07:05:46;7.95;;;5.38;;
52946;SDS011;45776;40.400;17.260;2022-07-09T07:08:12;6.43;;;5.20;;
52946;SDS011;45776;40.400;17.260;2022-07-09T07:10:37;10.75;;;5.63;;
52946;SDS011;45776;40.400;17.260;2022-07-09T07:13:02;8.27;;;5.22;;
52946;SDS011;45776;40.400;17.260;2022-07-09T07:15:28;9.52;;;4.95;;
52946;SDS011;45776;40.400;17.260;2022-07-09T07:17:53;7.97;;;5.10;;
52946;SDS011;45776;40.400;17.260;2022-07-09T07:20:19;9.70;;;5.68;;
52946;SDS011;45776;40.400;17.260;2022-07-09T07:22:48;10.93;;;5.57;;
52946;SDS011;45776;40.400;17.260;2022-07-09T07:25:13;13.95;;;5.35;;
52946;SDS011;45776;40.400;17.260;2022-07-09T07:27:39;9.18;;;5.38;;
52946;SDS011;45776;40.400;17.260;2022-07-09T07:30:04;10.20;;;5.38;;
52946;SDS011;45776;40.400;17.260;2022-07-09T07:32:30;10.13;;;5.03;;
52946;SDS011;45776;40.400;17.260;2022-07-09T07:34:56;9.75;;;5.35;;
52946;SDS011;45776;40.400;17.260;2022-07-09T07:37:21;7.32;;;5.10;;
52946;SDS011;45776;40.400;17.260;2022-07-09T07:39:47;6.38;;;4.85;;
52946;SDS011;45776;40.400;17.260;2022-07-09T07:42:13;9.65;;;5.05;;
52946;SDS011;45776;40.400;17.260;2022-07-09T07:44:40;8.20;;;5.32;;
52946;SDS011;45776;40.400;17.260;2022-07-09T07:47:06;12.25;;;4.78;;
52946;SDS011;45776;40.400;17.260;2022-07-09T07:49:32;9.32;;;4.88;;
52946;SDS011;45776;40.400;17.260;2022-07-09T07:51:57;11.20;;;5.15;;
52946;SDS011;45776;40.400;17.260;2022-07-09T07:54:23;7.40;;;4.68;;
52946;SDS011;45776;40.400;17.260;2022-07-09T07:56:48;9.43;;;5.10;;
52946;SDS011;45776;40.400;17.260;2022-07-09T07:59:15;10.45;;;4.90;;
52946;SDS011;45776;40.400;17.260;2022-07-09T08:01:41;10.45;;;4.90;;
52946;SDS011;45776;40.400;17.260;2022-07-09T08:04:07;6.75;;;5.13;;
52946;SDS011;45776;40.400;17.260;2022-07-09T08:06:32;6.70;;;4.70;;
52946;SDS011;45776;40.400;17.260;2022-07-09T08:09:00;9.45;;;5.28;;
52946;SDS011;45776;40.400;17.260;2022-07-09T08:11:25;6.60;;;4.47;;
52946;SDS011;45776;40.400;17.260;2022-07-09T08:13:51;9.68;;;4.70;;
52946;SDS011;45776;40.400;17.260;2022-07-09T08:16:16;7.78;;;4.95;;
52946;SDS011;45776;40.400;17.260;2022-07-09T08:18:42;5.95;;;4.75;;
52946;SDS011;45776;40.400;17.260;2022-07-09T08:21:07;9.50;;;5.00;;
52946;SDS011;45776;40.400;17.260;2022-07-09T08:23:33;8.57;;;4.25;;
52946;SDS011;45776;40.400;17.260;2022-07-09T08:26:16;8.13;;;4.55;;
52946;SDS011;45776;40.400;17.260;2022-07-09T08:28:43;8.50;;;4.65;;
52946;SDS011;45776;40.400;17.260;2022-07-09T08:31:08;6.88;;;4.38;;
52946;SDS011;45776;40.400;17.260;2022-07-09T08:33:34;6.20;;;4.97;;
52946;SDS011;45776;40.400;17.260;2022-07-09T08:35:59;5.80;;;4.45;;
52946;SDS011;45776;40.400;17.260;2022-07-09T08:38:25;7.47;;;4.70;;
52946;SDS011;45776;40.400;17.260;2022-07-09T08:40:50;8.55;;;4.90;;
52946;SDS011;45776;40.400;17.260;2022-07-09T08:43:16;11.10;;;5.22;;
52946;SDS011;45776;40.400;17.260;2022-07-09T08:45:42;8.98;;;4.90;;
52946;SDS011;45776;40.400;17.260;2022-07-09T08:48:10;6.20;;;4.30;;
52946;SDS011;45776;40.400;17.260;2022-07-09T08:50:35;6.78;;;5.13;;
52946;SDS011;45776;40.400;17.260;2022-07-09T08:53:02;8.57;;;4.78;;
52946;SDS011;45776;40.400;17.260;2022-07-09T08:55:28;9.60;;;5.03;;
52946;SDS011;45776;40.400;17.260;2022-07-09T08:57:55;6.88;;;4.50;;
52946;SDS011;45776;40.400;17.260;2022-07-09T09:00:21;10.35;;;4.30;;
52946;SDS011;45776;40.400;17.260;2022-07-09T09:02:46;5.82;;;4.20;;
52946;SDS011;45776;40.400;17.260;2022-07-09T09:05:13;6.40;;;4.32;;
52946;SDS011;45776;40.400;17.260;2022-07-09T09:07:39;9.38;;;4.18;;
52946;SDS011;45776;40.400;17.260;2022-07-09T09:10:05;6.78;;;4.60;;
52946;SDS011;45776;40.400;17.260;2022-07-09T09:12:31;9.00;;;4.75;;
52946;SDS011;45776;40.400;17.260;2022-07-09T09:14:57;5.88;;;4.18;;
52946;SDS011;45776;40.400;17.260;2022-07-09T09:17:22;9.20;;;4.53;;
52946;SDS011;45776;40.400;17.260;2022-07-09T09:19:48;6.25;;;4.15;;
52946;SDS011;45776;40.400;17.260;2022-07-09T09:22:17;8.52;;;4.20;;
52946;SDS011;45776;40.400;17.260;2022-07-09T09:24:43;6.10;;;4.13;;
52946;SDS011;45776;40.400;17.260;2022-07-09T09:27:08;5.88;;;3.97;;
52946;SDS011;45776;40.400;17.260;2022-07-09T09:29:34;6.75;;;4.45;;
52946;SDS011;45776;40.400;17.260;2022-07-09T09:32:10;6.47;;;4.38;;
52946;SDS011;45776;40.400;17.260;2022-07-09T09:34:36;6.20;;;4.15;;
52946;SDS011;45776;40.400;17.260;2022-07-09T09:37:01;10.52;;;4.43;;
52946;SDS011;45776;40.400;17.260;2022-07-09T09:39:30;9.55;;;4.22;;
52946;SDS011;45776;40.400;17.260;2022-07-09T09:41:57;8.60;;;4.43;;
52946;SDS011;45776;40.400;17.260;2022-07-09T09:44:27;5.85;;;4.50;;
52946;SDS011;45776;40.400;17.260;2022-07-09T09:46:56;7.95;;;4.55;;
52946;SDS011;45776;40.400;17.260;2022-07-09T09:49:22;9.93;;;3.80;;
52946;SDS011;45776;40.400;17.260;2022-07-09T09:51:56;5.00;;;3.63;;
52946;SDS011;45776;40.400;17.260;2022-07-09T09:54:27;5.93;;;3.97;;
52946;SDS011;45776;40.400;17.260;2022-07-09T09:56:53;6.82;;;3.88;;
52946;SDS011;45776;40.400;17.260;2022-07-09T09:59:19;6.43;;;4.38;;
52946;SDS011;45776;40.400;17.260;2022-07-09T10:01:46;6.65;;;3.80;;
52946;SDS011;45776;40.400;17.260;2022-07-09T10:04:12;7.53;;;3.95;;
52946;SDS011;45776;40.400;17.260;2022-07-09T10:06:43;5.35;;;4.22;;
52946;SDS011;45776;40.400;17.260;2022-07-09T10:09:13;5.28;;;4.15;;
52946;SDS011;45776;40.400;17.260;2022-07-09T10:11:43;8.80;;;4.10;;
52946;SDS011;45776;40.400;17.260;2022-07-09T10:14:17;6.45;;;4.07;;
52946;SDS011;45776;40.400;17.260;2022-07-09T10:16:55;7.57;;;3.83;;
52946;SDS011;45776;40.400;17.260;2022-07-09T10:19:24;7.63;;;3.92;;
52946;SDS011;45776;40.400;17.260;2022-07-09T10:21:51;5.90;;;3.35;;
52946;SDS011;45776;40.400;17.260;2022-07-09T10:24:28;5.35;;;3.35;;
52946;SDS011;45776;40.400;17.260;2022-07-09T10:27:03;7.70;;;3.40;;
52946;SDS011;45776;40.400;17.260;2022-07-09T10:29:30;6.05;;;3.40;;
52946;SDS011;45776;40.400;17.260;2022-07-09T10:31:56;7.75;;;3.38;;
52946;SDS011;45776;40.400;17.260;2022-07-09T10:36:58;8.77;;;3.97;;
52946;SDS011;45776;40.400;17.260;2022-07-09T10:39:24;3.88;;;2.90;;
52946;SDS011;45776;40.400;17.260;2022-07-09T10:42:03;7.32;;;3.13;;
52946;SDS011;45776;40.400;17.260;2022-07-09T10:44:37;4.07;;;3.10;;
52946;SDS011;45776;40.400;17.260;2022-07-09T10:47:03;3.88;;;3.05;;
52946;SDS011;45776;40.400;17.260;2022-07-09T10:49:30;6.13;;;3.10;;
52946;SDS011;45776;40.400;17.260;2022-07-09T10:51:58;5.88;;;3.10;;
52946;SDS011;45776;40.400;17.260;2022-07-09T10:54:25;5.80;;;3.47;;
52946;SDS011;45776;40.400;17.260;2022-07-09T10:56:52;3.38;;;2.80;;
52946;SDS011;45776;40.400;17.260;2022-07-09T10:59:18;3.88;;;2.80;;
52946;SDS011;45776;40.400;17.260;2022-07-09T11:01:44;4.35;;;3.60;;
52946;SDS011;45776;40.400;17.260;2022-07-09T11:04:09;4.43;;;3.05;;
52946;SDS011;45776;40.400;17.260;2022-07-09T11:06:44;3.45;;;2.85;;
52946;SDS011;45776;40.400;17.260;2022-07-09T11:09:11;4.93;;;3.33;;
52946;SDS011;45776;40.400;17.260;2022-07-09T11:11:38;4.18;;;2.10;;
52946;SDS011;45776;40.400;17.260;2022-07-09T11:14:08;4.82;;;2.13;;
52946;SDS011;45776;40.400;17.260;2022-07-09T11:16:34;3.05;;;2.38;;
52946;SDS011;45776;40.400;17.260;2022-07-09T11:19:11;2.88;;;2.28;;
52946;SDS011;45776;40.400;17.260;2022-07-09T11:21:41;5.40;;;2.65;;
52946;SDS011;45776;40.400;17.260;2022-07-09T11:24:16;2.60;;;2.40;;
52946;SDS011;45776;40.400;17.260;2022-07-09T11:26:44;3.88;;;2.10;;
52946;SDS011;45776;40.400;17.260;2022-07-09T11:29:10;3.75;;;2.20;;
52946;SDS011;45776;40.400;17.260;2022-07-09T11:31:36;3.40;;;2.65;;
52946;SDS011;45776;40.400;17.260;2022-07-09T11:34:10;7.53;;;2.40;;
52946;SDS011;45776;40.400;17.260;2022-07-09T11:36:36;2.53;;;2.33;;
52946;SDS011;45776;40.400;17.260;2022-07-09T11:39:05;2.97;;;2.00;;
52946;SDS011;45776;40.400;17.260;2022-07-09T11:41:44;4.03;;;2.33;;
52946;SDS011;45776;40.400;17.260;2022-07-09T11:44:10;5.70;;;2.30;;
52946;SDS011;45776;40.400;17.260;2022-07-09T11:46:38;2.67;;;1.95;;
52946;SDS011;45776;40.400;17.260;2022-07-09T11:49:13;4.75;;;2.30;;
52946;SDS011;45776;40.400;17.260;2022-07-09T11:51:40;3.17;;;2.17;;
52946;SDS011;45776;40.400;17.260;2022-07-09T11:54:06;4.80;;;2.30;;
52946;SDS011;45776;40.400;17.260;2022-07-09T11:59:11;2.33;;;2.00;;
52946;SDS011;45776;40.400;17.260;2022-07-09T12:01:37;5.00;;;2.47;;
52946;SDS011;45776;40.400;17.260;2022-07-09T12:04:04;4.45;;;2.00;;
52946;SDS011;45776;40.400;17.260;2022-07-09T12:06:30;5.13;;;2.03;;
52946;SDS011;45776;40.400;17.260;2022-07-09T12:08:59;2.35;;;2.10;;
52946;SDS011;45776;40.400;17.260;2022-07-09T12:11:27;2.63;;;2.08;;
52946;SDS011;45776;40.400;17.260;2022-07-09T12:13:53;3.83;;;2.40;;
52946;SDS011;45776;40.400;17.260;2022-07-09T12:16:19;5.70;;;2.13;;
52946;SDS011;45776;40.400;17.260;2022-07-09T12:18:45;3.53;;;2.35;;
52946;SDS011;45776;40.400;17.260;2022-07-09T12:21:10;2.55;;;2.03;;
52946;SDS011;45776;40.400;17.260;2022-07-09T12:23:36;4.05;;;1.85;;
52946;SDS011;45776;40.400;17.260;2022-07-09T12:26:01;3.13;;;1.80;;
52946;SDS011;45776;40.400;17.260;2022-07-09T12:28:26;2.92;;;1.77;;
52946;SDS011;45776;40.400;17.260;2022-07-09T12:30:52;2.65;;;2.00;;
52946;SDS011;45776;40.400;17.260;2022-07-09T12:33:17;5.13;;;1.90;;
52946;SDS011;45776;40.400;17.260;2022-07-09T12:35:43;3.08;;;1.83;;
52946;SDS011;45776;40.400;17.260;2022-07-09T12:38:09;2.17;;;1.75;;
52946;SDS011;45776;40.400;17.260;2022-07-09T12:40:34;2.40;;;1.92;;
52946;SDS011;45776;40.400;17.260;2022-07-09T12:43:00;3.00;;;1.90;;
52946;SDS011;45776;40.400;17.260;2022-07-09T12:45:26;2.72;;;1.80;;
52946;SDS011;45776;40.400;17.260;2022-07-09T12:47:51;2.65;;;1.70;;
52946;SDS011;45776;40.400;17.260;2022-07-09T12:50:17;2.38;;;2.08;;
52946;SDS011;45776;40.400;17.260;2022-07-09T12:52:42;2.20;;;1.80;;
52946;SDS011;45776;40.400;17.260;2022-07-09T12:55:08;4.28;;;2.00;;
52946;SDS011;45776;40.400;17.260;2022-07-09T12:57:34;1.75;;;1.60;;
52946;SDS011;45776;40.400;17.260;2022-07-09T13:00:01;1.95;;;1.58;;
52946;SDS011;45776;40.400;17.260;2022-07-09T13:02:28;2.63;;;1.60;;
52946;SDS011;45776;40.400;17.260;2022-07-09T13:04:53;2.10;;;1.80;;
52946;SDS011;45776;40.400;17.260;2022-07-09T13:07:19;1.65;;;1.52;;
52946;SDS011;45776;40.400;17.260;2022-07-09T13:09:45;2.75;;;1.70;;
52946;SDS011;45776;40.400;17.260;2022-07-09T13:12:10;1.98;;;1.77;;
52946;SDS011;45776;40.400;17.260;2022-07-09T13:14:36;2.75;;;1.98;;
52946;SDS011;45776;40.400;17.260;2022-07-09T13:17:01;3.35;;;1.60;;
52946;SDS011;45776;40.400;17.260;2022-07-09T13:19:27;3.22;;;1.45;;
52946;SDS011;45776;40.400;17.260;2022-07-09T13:21:52;3.13;;;1.60;;
52946;SDS011;45776;40.400;17.260;2022-07-09T13:24:18;5.68;;;1.80;;
52946;SDS011;45776;40.400;17.260;2022-07-09T13:26:43;5.20;;;1.85;;
52946;SDS011;45776;40.400;17.260;2022-07-09T13:29:09;4.25;;;1.67;;
52946;SDS011;45776;40.400;17.260;2022-07-09T13:31:34;2.95;;;1.77;;
52946;SDS011;45776;40.400;17.260;2022-07-09T13:34:00;1.85;;;1.67;;
52946;SDS011;45776;40.400;17.260;2022-07-09T13:36:26;4.25;;;1.77;;
52946;SDS011;45776;40.400;17.260;2022-07-09T13:38:51;4.55;;;2.10;;
52946;SDS011;45776;40.400;17.260;2022-07-09T13:41:17;1.90;;;1.40;;
52946;SDS011;45776;40.400;17.260;2022-07-09T13:43:44;6.20;;;1.70;;
52946;SDS011;45776;40.400;17.260;2022-07-09T13:46:10;4.97;;;1.75;;
52946;SDS011;45776;40.400;17.260;2022-07-09T13:48:36;4.38;;;1.65;;
52946;SDS011;45776;40.400;17.260;2022-07-09T13:51:02;2.72;;;1.42;;
52946;SDS011;45776;40.400;17.260;2022-07-09T13:53:28;3.35;;;1.52;;
52946;SDS011;45776;40.400;17.260;2022-07-09T13:55:54;2.50;;;1.80;;
52946;SDS011;45776;40.400;17.260;2022-07-09T13:58:21;3.78;;;1.58;;
52946;SDS011;45776;40.400;17.260;2022-07-09T14:00:46;6.32;;;1.88;;
52946;SDS011;45776;40.400;17.260;2022-07-09T14:03:12;4.22;;;2.13;;
52946;SDS011;45776;40.400;17.260;2022-07-09T14:05:37;2.03;;;1.40;;
52946;SDS011;45776;40.400;17.260;2022-07-09T14:08:03;4.93;;;1.60;;
52946;SDS011;45776;40.400;17.260;2022-07-09T14:10:30;1.90;;;1.42;;
52946;SDS011;45776;40.400;17.260;2022-07-09T14:12:56;10.52;;;1.95;;
52946;SDS011;45776;40.400;17.260;2022-07-09T14:15:22;2.42;;;1.40;;
52946;SDS011;45776;40.400;17.260;2022-07-09T14:17:48;2.63;;;1.58;;
52946;SDS011;45776;40.400;17.260;2022-07-09T14:20:13;3.22;;;1.73;;
52946;SDS011;45776;40.400;17.260;2022-07-09T14:22:40;2.70;;;2.00;;
52946;SDS011;45776;40.400;17.260;2022-07-09T14:25:06;2.28;;;1.83;;
52946;SDS011;45776;40.400;17.260;2022-07-09T14:27:32;1.63;;;1.33;;
52946;SDS011;45776;40.400;17.260;2022-07-09T14:29:57;2.08;;;1.40;;
52946;SDS011;45776;40.400;17.260;2022-07-09T14:32:23;1.88;;;1.42;;
52946;SDS011;45776;40.400;17.260;2022-07-09T14:34:49;3.58;;;1.55;;
52946;SDS011;45776;40.400;17.260;2022-07-09T14:37:14;1.63;;;1.30;;
52946;SDS011;45776;40.400;17.260;2022-07-09T14:39:40;1.30;;;1.20;;
52946;SDS011;45776;40.400;17.260;2022-07-09T14:42:06;3.97;;;1.63;;
52946;SDS011;45776;40.400;17.260;2022-07-09T14:44:31;5.15;;;1.90;;
52946;SDS011;45776;40.400;17.260;2022-07-09T14:46:57;4.95;;;1.80;;
52946;SDS011;45776;40.400;17.260;2022-07-09T14:49:24;2.10;;;1.60;;
52946;SDS011;45776;40.400;17.260;2022-07-09T14:51:50;2.05;;;1.40;;
52946;SDS011;45776;40.400;17.260;2022-07-09T14:54:16;2.03;;;1.50;;
52946;SDS011;45776;40.400;17.260;2022-07-09T14:56:42;4.07;;;1.60;;
52946;SDS011;45776;40.400;17.260;2022-07-09T14:59:07;1.73;;;1.50;;
52946;SDS011;45776;40.400;17.260;2022-07-09T15:01:33;2.72;;;1.60;;
52946;SDS011;45776;40.400;17.260;2022-07-09T15:03:59;2.65;;;1.33;;
52946;SDS011;45776;40.400;17.260;2022-07-09T15:06:24;2.40;;;1.63;;
52946;SDS011;45776;40.400;17.260;2022-07-09T15:08:50;2.40;;;1.40;;
52946;SDS011;45776;40.400;17.260;2022-07-09T15:11:16;2.80;;;1.88;;
52946;SDS011;45776;40.400;17.260;2022-07-09T15:13:41;3.47;;;1.90;;